sensor_id;sensor_type;location;lat;lon;timestamp;P1;durP1;ratioP1;P2;durP2;ratioP2
23561;SDS011;11959;49.418;8.728;2023-01-16T00:00:57;2.70;;;0.82;;
23561;SDS011;11959;49.418;8.728;2023-01-16T00:03:25;4.32;;;0.75;;
23561;SDS011;11959;49.418;8.728;2023-01-16T00:05:51;3.45;;;0.68;;
23561;SDS011;11959;49.418;8.728;2023-01-16T00:08:17;4.03;;;0.95;;
23561;SDS011;11959;49.418;8.728;2023-01-16T00:10:43;7.18;;;1.15;;
23561;SDS011;11959;49.418;8.728;2023-01-16T00:13:10;1.88;;;0.70;;
23561;SDS011;11959;49.418;8.728;2023-01-16T00:15:37;2.40;;;0.90;;
23561;SDS011;11959;49.418;8.728;2023-01-16T00:18:03;3.70;;;0.77;;
23561;SDS011;11959;49.418;8.728;2023-01-16T00:20:28;3.38;;;0.95;;
23561;SDS011;11959;49.418;8.728;2023-01-16T00:22:56;3.60;;;1.17;;
23561;SDS011;11959;49.418;8.728;2023-01-16T00:25:21;3.58;;;0.85;;
23561;SDS011;11959;49.418;8.728;2023-01-16T00:27:47;2.83;;;0.80;;
23561;SDS011;11959;49.418;8.728;2023-01-16T00:30:12;3.55;;;0.90;;
23561;SDS011;11959;49.418;8.728;2023-01-16T00:32:38;3.25;;;0.90;;
23561;SDS011;11959;49.418;8.728;2023-01-16T00:35:04;4.43;;;1.20;;
23561;SDS011;11959;49.418;8.728;2023-01-16T00:37:30;2.67;;;0.82;;
23561;SDS011;11959;49.418;8.728;2023-01-16T00:39:56;3.13;;;0.80;;
23561;SDS011;11959;49.418;8.728;2023-01-16T00:42:21;6.65;;;1.50;;
23561;SDS011;11959;49.418;8.728;2023-01-16T00:44:47;3.63;;;0.90;;
23561;SDS011;11959;49.418;8.728;2023-01-16T00:47:12;2.78;;;0.82;;
23561;SDS011;11959;49.418;8.728;2023-01-16T00:49:38;5.10;;;0.90;;
23561;SDS011;11959;49.418;8.728;2023-01-16T00:52:04;4.72;;;0.73;;
23561;SDS011;11959;49.418;8.728;2023-01-16T00:54:30;2.90;;;0.75;;
23561;SDS011;11959;49.418;8.728;2023-01-16T00:56:56;2.60;;;0.85;;
23561;SDS011;11959;49.418;8.728;2023-01-16T00:59:21;4.07;;;1.10;;
23561;SDS011;11959;49.418;8.728;2023-01-16T01:01:47;2.17;;;0.75;;
23561;SDS011;11959;49.418;8.728;2023-01-16T01:04:13;3.08;;;0.80;;
23561;SDS011;11959;49.418;8.728;2023-01-16T01:06:39;4.45;;;0.90;;
23561;SDS011;11959;49.418;8.728;2023-01-16T01:09:05;1.23;;;0.52;;
23561;SDS011;11959;49.418;8.728;2023-01-16T01:11:31;1.83;;;0.60;;
23561;SDS011;11959;49.418;8.728;2023-01-16T01:13:57;2.17;;;0.70;;
23561;SDS011;11959;49.418;8.728;2023-01-16T01:16:23;1.88;;;0.60;;
23561;SDS011;11959;49.418;8.728;2023-01-16T01:18:49;6.03;;;1.08;;
23561;SDS011;11959;49.418;8.728;2023-01-16T01:21:15;2.17;;;0.80;;
23561;SDS011;11959;49.418;8.728;2023-01-16T01:23:41;2.78;;;0.98;;
23561;SDS011;11959;49.418;8.728;2023-01-16T01:26:10;3.10;;;0.75;;
23561;SDS011;11959;49.418;8.728;2023-01-16T01:28:38;4.68;;;0.85;;
23561;SDS011;11959;49.418;8.728;2023-01-16T01:31:04;3.33;;;0.70;;
23561;SDS011;11959;49.418;8.728;2023-01-16T01:33:32;6.28;;;0.88;;
23561;SDS011;11959;49.418;8.728;2023-01-16T01:35:58;2.38;;;0.60;;
23561;SDS011;11959;49.418;8.728;2023-01-16T01:38:24;3.67;;;0.88;;
23561;SDS011;11959;49.418;8.728;2023-01-16T01:40:50;1.55;;;0.60;;
23561;SDS011;11959;49.418;8.728;2023-01-16T01:43:15;4.75;;;1.08;;
23561;SDS011;11959;49.418;8.728;2023-01-16T01:45:42;2.72;;;0.90;;
23561;SDS011;11959;49.418;8.728;2023-01-16T01:48:18;4.57;;;1.00;;
23561;SDS011;11959;49.418;8.728;2023-01-16T01:50:54;3.38;;;0.90;;
23561;SDS011;11959;49.418;8.728;2023-01-16T01:53:33;2.88;;;0.63;;
23561;SDS011;11959;49.418;8.728;2023-01-16T01:56:03;6.25;;;1.13;;
23561;SDS011;11959;49.418;8.728;2023-01-16T01:58:37;3.13;;;0.80;;
23561;SDS011;11959;49.418;8.728;2023-01-16T02:01:04;3.90;;;0.85;;
23561;SDS011;11959;49.418;8.728;2023-01-16T02:03:50;5.20;;;1.15;;
23561;SDS011;11959;49.418;8.728;2023-01-16T02:06:21;3.90;;;1.00;;
23561;SDS011;11959;49.418;8.728;2023-01-16T02:08:53;2.70;;;0.70;;
23561;SDS011;11959;49.418;8.728;2023-01-16T02:11:22;2.67;;;0.73;;
23561;SDS011;11959;49.418;8.728;2023-01-16T02:14:11;4.45;;;0.85;;
23561;SDS011;11959;49.418;8.728;2023-01-16T02:16:38;4.63;;;1.00;;
23561;SDS011;11959;49.418;8.728;2023-01-16T02:25:03;4.88;;;0.82;;
23561;SDS011;11959;49.418;8.728;2023-01-16T02:33:09;2.97;;;0.68;;
23561;SDS011;11959;49.418;8.728;2023-01-16T02:38:49;2.20;;;0.70;;
23561;SDS011;11959;49.418;8.728;2023-01-16T02:44:23;2.92;;;0.70;;
23561;SDS011;11959;49.418;8.728;2023-01-16T02:49:31;3.40;;;0.90;;
23561;SDS011;11959;49.418;8.728;2023-01-16T02:54:48;4.13;;;0.93;;
23561;SDS011;11959;49.418;8.728;2023-01-16T02:57:18;2.85;;;0.80;;
23561;SDS011;11959;49.418;8.728;2023-01-16T02:59:45;1.75;;;0.60;;
23561;SDS011;11959;49.418;8.728;2023-01-16T03:02:13;3.80;;;0.77;;
23561;SDS011;11959;49.418;8.728;2023-01-16T03:09:49;2.30;;;0.70;;
23561;SDS011;11959;49.418;8.728;2023-01-16T03:39:11;1.50;;;0.60;;
23561;SDS011;11959;49.418;8.728;2023-01-16T03:41:39;3.58;;;0.73;;
23561;SDS011;11959;49.418;8.728;2023-01-16T03:44:09;3.28;;;0.73;;
23561;SDS011;11959;49.418;8.728;2023-01-16T03:46:50;3.30;;;0.70;;
23561;SDS011;11959;49.418;8.728;2023-01-16T03:49:20;2.58;;;0.50;;
23561;SDS011;11959;49.418;8.728;2023-01-16T03:51:56;4.65;;;0.80;;
23561;SDS011;11959;49.418;8.728;2023-01-16T03:59:49;2.28;;;0.60;;
23561;SDS011;11959;49.418;8.728;2023-01-16T04:04:57;1.40;;;0.60;;
23561;SDS011;11959;49.418;8.728;2023-01-16T04:10:17;2.78;;;0.50;;
23561;SDS011;11959;49.418;8.728;2023-01-16T04:12:57;3.92;;;0.85;;
23561;SDS011;11959;49.418;8.728;2023-01-16T04:15:27;4.10;;;0.80;;
23561;SDS011;11959;49.418;8.728;2023-01-16T04:17:55;0.98;;;0.52;;
23561;SDS011;11959;49.418;8.728;2023-01-16T04:20:22;3.28;;;0.85;;
23561;SDS011;11959;49.418;8.728;2023-01-16T04:22:50;2.50;;;0.88;;
23561;SDS011;11959;49.418;8.728;2023-01-16T04:25:16;2.42;;;0.50;;
23561;SDS011;11959;49.418;8.728;2023-01-16T04:27:43;4.22;;;1.10;;
23561;SDS011;11959;49.418;8.728;2023-01-16T04:30:09;3.22;;;0.85;;
23561;SDS011;11959;49.418;8.728;2023-01-16T04:32:35;2.85;;;0.75;;
23561;SDS011;11959;49.418;8.728;2023-01-16T04:35:01;3.70;;;0.85;;
23561;SDS011;11959;49.418;8.728;2023-01-16T04:37:28;2.63;;;0.82;;
23561;SDS011;11959;49.418;8.728;2023-01-16T04:39:53;3.05;;;0.80;;
23561;SDS011;11959;49.418;8.728;2023-01-16T04:42:19;4.20;;;0.82;;
23561;SDS011;11959;49.418;8.728;2023-01-16T04:44:45;2.47;;;0.70;;
23561;SDS011;11959;49.418;8.728;2023-01-16T04:47:10;3.80;;;0.75;;
23561;SDS011;11959;49.418;8.728;2023-01-16T04:49:37;3.30;;;0.88;;
23561;SDS011;11959;49.418;8.728;2023-01-16T04:52:02;2.88;;;0.80;;
23561;SDS011;11959;49.418;8.728;2023-01-16T04:54:28;1.52;;;0.70;;
23561;SDS011;11959;49.418;8.728;2023-01-16T04:56:54;2.15;;;0.60;;
23561;SDS011;11959;49.418;8.728;2023-01-16T04:59:20;2.33;;;0.60;;
23561;SDS011;11959;49.418;8.728;2023-01-16T05:01:46;2.55;;;0.70;;
23561;SDS011;11959;49.418;8.728;2023-01-16T05:04:13;2.00;;;0.68;;
23561;SDS011;11959;49.418;8.728;2023-01-16T05:06:40;3.13;;;0.60;;
23561;SDS011;11959;49.418;8.728;2023-01-16T05:09:06;1.67;;;0.60;;
23561;SDS011;11959;49.418;8.728;2023-01-16T05:11:32;3.00;;;0.73;;
23561;SDS011;11959;49.418;8.728;2023-01-16T05:13:59;2.13;;;0.60;;
23561;SDS011;11959;49.418;8.728;2023-01-16T05:16:25;3.20;;;0.68;;
23561;SDS011;11959;49.418;8.728;2023-01-16T05:18:51;6.05;;;2.00;;
23561;SDS011;11959;49.418;8.728;2023-01-16T05:21:16;3.03;;;0.68;;
23561;SDS011;11959;49.418;8.728;2023-01-16T05:23:42;2.60;;;0.75;;
23561;SDS011;11959;49.418;8.728;2023-01-16T05:26:08;1.77;;;0.82;;
23561;SDS011;11959;49.418;8.728;2023-01-16T05:28:34;4.07;;;1.00;;
23561;SDS011;11959;49.418;8.728;2023-01-16T05:31:01;3.15;;;0.82;;
23561;SDS011;11959;49.418;8.728;2023-01-16T05:33:27;4.25;;;0.73;;
23561;SDS011;11959;49.418;8.728;2023-01-16T05:35:52;3.65;;;0.73;;
23561;SDS011;11959;49.418;8.728;2023-01-16T05:38:19;2.00;;;0.65;;
23561;SDS011;11959;49.418;8.728;2023-01-16T05:40:44;2.28;;;0.60;;
23561;SDS011;11959;49.418;8.728;2023-01-16T05:43:10;2.30;;;0.75;;
23561;SDS011;11959;49.418;8.728;2023-01-16T05:45:36;3.85;;;1.30;;
23561;SDS011;11959;49.418;8.728;2023-01-16T05:48:02;1.75;;;0.80;;
23561;SDS011;11959;49.418;8.728;2023-01-16T05:50:28;3.20;;;0.70;;
23561;SDS011;11959;49.418;8.728;2023-01-16T05:52:54;4.25;;;0.93;;
23561;SDS011;11959;49.418;8.728;2023-01-16T05:55:19;5.18;;;1.10;;
23561;SDS011;11959;49.418;8.728;2023-01-16T05:57:45;2.95;;;1.20;;
23561;SDS011;11959;49.418;8.728;2023-01-16T06:00:11;3.20;;;0.85;;
23561;SDS011;11959;49.418;8.728;2023-01-16T06:02:37;1.92;;;0.85;;
23561;SDS011;11959;49.418;8.728;2023-01-16T06:05:03;1.73;;;0.50;;
23561;SDS011;11959;49.418;8.728;2023-01-16T06:07:29;2.88;;;0.77;;
23561;SDS011;11959;49.418;8.728;2023-01-16T06:09:54;5.03;;;1.08;;
23561;SDS011;11959;49.418;8.728;2023-01-16T06:12:20;3.55;;;0.80;;
23561;SDS011;11959;49.418;8.728;2023-01-16T06:14:46;3.17;;;0.70;;
23561;SDS011;11959;49.418;8.728;2023-01-16T06:17:12;2.03;;;0.70;;
23561;SDS011;11959;49.418;8.728;2023-01-16T06:19:39;2.17;;;0.70;;
23561;SDS011;11959;49.418;8.728;2023-01-16T06:22:05;1.60;;;0.70;;
23561;SDS011;11959;49.418;8.728;2023-01-16T06:24:31;2.72;;;0.70;;
23561;SDS011;11959;49.418;8.728;2023-01-16T06:26:57;3.38;;;1.00;;
23561;SDS011;11959;49.418;8.728;2023-01-16T06:29:23;3.40;;;0.65;;
23561;SDS011;11959;49.418;8.728;2023-01-16T06:31:48;2.03;;;0.60;;
23561;SDS011;11959;49.418;8.728;2023-01-16T06:34:14;2.58;;;0.90;;
23561;SDS011;11959;49.418;8.728;2023-01-16T06:36:40;4.78;;;0.90;;
23561;SDS011;11959;49.418;8.728;2023-01-16T06:39:06;1.33;;;0.70;;
23561;SDS011;11959;49.418;8.728;2023-01-16T06:41:32;3.53;;;0.85;;
23561;SDS011;11959;49.418;8.728;2023-01-16T06:43:58;2.00;;;0.80;;
23561;SDS011;11959;49.418;8.728;2023-01-16T06:46:24;3.47;;;0.70;;
23561;SDS011;11959;49.418;8.728;2023-01-16T06:48:50;2.90;;;0.88;;
23561;SDS011;11959;49.418;8.728;2023-01-16T06:51:15;2.67;;;0.85;;
23561;SDS011;11959;49.418;8.728;2023-01-16T06:53:41;2.13;;;0.70;;
23561;SDS011;11959;49.418;8.728;2023-01-16T06:56:08;1.75;;;0.70;;
23561;SDS011;11959;49.418;8.728;2023-01-16T06:58:36;3.08;;;0.60;;
23561;SDS011;11959;49.418;8.728;2023-01-16T07:01:04;3.75;;;0.77;;
23561;SDS011;11959;49.418;8.728;2023-01-16T07:03:37;2.65;;;0.90;;
23561;SDS011;11959;49.418;8.728;2023-01-16T07:06:05;3.97;;;1.00;;
23561;SDS011;11959;49.418;8.728;2023-01-16T07:08:32;2.47;;;0.80;;
23561;SDS011;11959;49.418;8.728;2023-01-16T07:10:58;3.83;;;1.30;;
23561;SDS011;11959;49.418;8.728;2023-01-16T07:13:25;2.78;;;1.08;;
23561;SDS011;11959;49.418;8.728;2023-01-16T07:15:53;5.28;;;1.23;;
23561;SDS011;11959;49.418;8.728;2023-01-16T07:18:38;3.72;;;1.25;;
23561;SDS011;11959;49.418;8.728;2023-01-16T07:21:26;3.85;;;0.98;;
23561;SDS011;11959;49.418;8.728;2023-01-16T07:24:13;2.75;;;1.00;;
23561;SDS011;11959;49.418;8.728;2023-01-16T07:26:43;1.75;;;0.80;;
23561;SDS011;11959;49.418;8.728;2023-01-16T07:29:10;2.60;;;0.75;;
23561;SDS011;11959;49.418;8.728;2023-01-16T07:31:36;3.38;;;0.70;;
23561;SDS011;11959;49.418;8.728;2023-01-16T07:34:03;3.35;;;0.80;;
23561;SDS011;11959;49.418;8.728;2023-01-16T07:36:28;2.15;;;0.80;;
23561;SDS011;11959;49.418;8.728;2023-01-16T07:38:54;4.32;;;1.10;;
23561;SDS011;11959;49.418;8.728;2023-01-16T07:41:20;3.22;;;1.23;;
23561;SDS011;11959;49.418;8.728;2023-01-16T07:43:45;1.77;;;0.88;;
23561;SDS011;11959;49.418;8.728;2023-01-16T07:46:11;3.88;;;0.88;;
23561;SDS011;11959;49.418;8.728;2023-01-16T07:48:37;2.60;;;0.90;;
23561;SDS011;11959;49.418;8.728;2023-01-16T07:51:02;3.30;;;0.80;;
23561;SDS011;11959;49.418;8.728;2023-01-16T07:53:29;2.40;;;0.90;;
23561;SDS011;11959;49.418;8.728;2023-01-16T07:55:55;1.60;;;0.60;;
23561;SDS011;11959;49.418;8.728;2023-01-16T07:58:23;2.83;;;0.80;;
23561;SDS011;11959;49.418;8.728;2023-01-16T08:00:49;4.45;;;0.80;;
23561;SDS011;11959;49.418;8.728;2023-01-16T08:03:17;3.67;;;0.90;;
23561;SDS011;11959;49.418;8.728;2023-01-16T08:05:43;4.25;;;0.80;;
23561;SDS011;11959;49.418;8.728;2023-01-16T08:08:10;2.83;;;0.80;;
23561;SDS011;11959;49.418;8.728;2023-01-16T08:10:36;2.90;;;0.70;;
23561;SDS011;11959;49.418;8.728;2023-01-16T08:13:02;1.52;;;0.68;;
23561;SDS011;11959;49.418;8.728;2023-01-16T08:15:28;2.90;;;0.80;;
23561;SDS011;11959;49.418;8.728;2023-01-16T08:17:54;2.45;;;0.75;;
23561;SDS011;11959;49.418;8.728;2023-01-16T08:20:19;3.05;;;0.60;;
23561;SDS011;11959;49.418;8.728;2023-01-16T08:22:46;1.20;;;0.80;;
23561;SDS011;11959;49.418;8.728;2023-01-16T08:25:13;2.40;;;0.77;;
23561;SDS011;11959;49.418;8.728;2023-01-16T08:27:40;3.05;;;0.90;;
23561;SDS011;11959;49.418;8.728;2023-01-16T08:30:06;4.03;;;1.00;;
23561;SDS011;11959;49.418;8.728;2023-01-16T08:32:33;2.53;;;0.77;;
23561;SDS011;11959;49.418;8.728;2023-01-16T08:34:58;1.60;;;0.80;;
23561;SDS011;11959;49.418;8.728;2023-01-16T08:37:24;1.45;;;0.70;;
23561;SDS011;11959;49.418;8.728;2023-01-16T08:39:50;2.33;;;0.80;;
23561;SDS011;11959;49.418;8.728;2023-01-16T08:42:15;3.25;;;0.85;;
23561;SDS011;11959;49.418;8.728;2023-01-16T08:44:59;2.00;;;0.73;;
23561;SDS011;11959;49.418;8.728;2023-01-16T08:47:44;2.85;;;0.80;;
23561;SDS011;11959;49.418;8.728;2023-01-16T08:50:28;1.73;;;0.70;;
23561;SDS011;11959;49.418;8.728;2023-01-16T08:53:13;2.17;;;0.80;;
23561;SDS011;11959;49.418;8.728;2023-01-16T08:55:38;4.82;;;0.80;;
23561;SDS011;11959;49.418;8.728;2023-01-16T08:58:04;1.92;;;0.63;;
23561;SDS011;11959;49.418;8.728;2023-01-16T09:00:31;1.13;;;0.63;;
23561;SDS011;11959;49.418;8.728;2023-01-16T09:02:58;1.73;;;0.77;;
23561;SDS011;11959;49.418;8.728;2023-01-16T09:05:24;2.33;;;0.88;;
23561;SDS011;11959;49.418;8.728;2023-01-16T09:07:50;1.50;;;0.70;;
23561;SDS011;11959;49.418;8.728;2023-01-16T09:10:16;4.07;;;0.82;;
23561;SDS011;11959;49.418;8.728;2023-01-16T09:12:42;5.95;;;1.08;;
23561;SDS011;11959;49.418;8.728;2023-01-16T09:15:26;3.47;;;0.65;;
23561;SDS011;11959;49.418;8.728;2023-01-16T09:17:52;3.92;;;1.00;;
23561;SDS011;11959;49.418;8.728;2023-01-16T09:20:18;6.63;;;1.10;;
23561;SDS011;11959;49.418;8.728;2023-01-16T09:22:44;2.53;;;0.98;;
23561;SDS011;11959;49.418;8.728;2023-01-16T09:25:10;1.95;;;0.77;;
23561;SDS011;11959;49.418;8.728;2023-01-16T09:27:35;2.75;;;0.90;;
23561;SDS011;11959;49.418;8.728;2023-01-16T09:30:01;4.03;;;0.95;;
23561;SDS011;11959;49.418;8.728;2023-01-16T09:32:28;1.30;;;0.60;;
23561;SDS011;11959;49.418;8.728;2023-01-16T09:34:53;1.27;;;0.60;;
23561;SDS011;11959;49.418;8.728;2023-01-16T09:37:19;2.65;;;0.90;;
23561;SDS011;11959;49.418;8.728;2023-01-16T09:39:45;6.05;;;1.30;;
23561;SDS011;11959;49.418;8.728;2023-01-16T09:44:57;1.73;;;0.70;;
23561;SDS011;11959;49.418;8.728;2023-01-16T09:47:30;1.80;;;0.80;;
23561;SDS011;11959;49.418;8.728;2023-01-16T09:49:58;3.67;;;1.13;;
23561;SDS011;11959;49.418;8.728;2023-01-16T09:52:30;3.90;;;1.02;;
23561;SDS011;11959;49.418;8.728;2023-01-16T09:55:27;2.38;;;0.65;;
23561;SDS011;11959;49.418;8.728;2023-01-16T09:58:23;2.42;;;0.73;;
23561;SDS011;11959;49.418;8.728;2023-01-16T10:06:21;2.72;;;0.98;;
23561;SDS011;11959;49.418;8.728;2023-01-16T10:22:32;2.13;;;0.90;;
23561;SDS011;11959;49.418;8.728;2023-01-16T10:30:57;2.28;;;0.80;;
23561;SDS011;11959;49.418;8.728;2023-01-16T10:33:44;3.53;;;0.93;;
23561;SDS011;11959;49.418;8.728;2023-01-16T10:36:27;1.33;;;0.82;;
23561;SDS011;11959;49.418;8.728;2023-01-16T10:39:00;3.17;;;1.45;;
23561;SDS011;11959;49.418;8.728;2023-01-16T10:41:30;3.05;;;1.05;;
23561;SDS011;11959;49.418;8.728;2023-01-16T10:47:14;1.45;;;0.82;;
23561;SDS011;11959;49.418;8.728;2023-01-16T10:50:01;2.15;;;1.15;;
23561;SDS011;11959;49.418;8.728;2023-01-16T10:52:28;2.75;;;1.15;;
23561;SDS011;11959;49.418;8.728;2023-01-16T10:54:55;4.70;;;1.08;;
23561;SDS011;11959;49.418;8.728;2023-01-16T10:57:23;1.73;;;0.80;;
23561;SDS011;11959;49.418;8.728;2023-01-16T10:59:50;1.55;;;0.70;;
23561;SDS011;11959;49.418;8.728;2023-01-16T11:02:19;2.17;;;0.98;;
23561;SDS011;11959;49.418;8.728;2023-01-16T11:04:49;2.28;;;0.95;;
23561;SDS011;11959;49.418;8.728;2023-01-16T11:07:18;4.57;;;1.10;;
23561;SDS011;11959;49.418;8.728;2023-01-16T11:09:45;3.22;;;1.10;;
23561;SDS011;11959;49.418;8.728;2023-01-16T11:12:15;1.48;;;1.10;;
23561;SDS011;11959;49.418;8.728;2023-01-16T11:15:13;2.45;;;1.05;;
23561;SDS011;11959;49.418;8.728;2023-01-16T11:18:17;1.60;;;1.00;;
23561;SDS011;11959;49.418;8.728;2023-01-16T11:20:59;2.15;;;0.77;;
23561;SDS011;11959;49.418;8.728;2023-01-16T11:23:35;3.45;;;0.82;;
23561;SDS011;11959;49.418;8.728;2023-01-16T11:26:02;1.70;;;0.90;;
23561;SDS011;11959;49.418;8.728;2023-01-16T11:28:30;4.90;;;1.40;;
23561;SDS011;11959;49.418;8.728;2023-01-16T11:30:57;4.35;;;2.42;;
23561;SDS011;11959;49.418;8.728;2023-01-16T11:33:28;9.95;;;4.32;;
23561;SDS011;11959;49.418;8.728;2023-01-16T11:36:03;6.80;;;2.70;;
23561;SDS011;11959;49.418;8.728;2023-01-16T11:38:32;4.80;;;2.10;;
23561;SDS011;11959;49.418;8.728;2023-01-16T11:41:00;4.05;;;1.77;;
23561;SDS011;11959;49.418;8.728;2023-01-16T11:43:29;8.30;;;3.95;;
23561;SDS011;11959;49.418;8.728;2023-01-16T11:49:14;2.80;;;1.58;;
23561;SDS011;11959;49.418;8.728;2023-01-16T11:51:41;4.05;;;1.88;;
23561;SDS011;11959;49.418;8.728;2023-01-16T11:54:16;3.53;;;1.48;;
23561;SDS011;11959;49.418;8.728;2023-01-16T11:57:04;2.17;;;1.00;;
23561;SDS011;11959;49.418;8.728;2023-01-16T12:11:15;5.88;;;3.28;;
23561;SDS011;11959;49.418;8.728;2023-01-16T12:13:49;5.15;;;2.75;;
23561;SDS011;11959;49.418;8.728;2023-01-16T12:22:57;2.15;;;1.33;;
23561;SDS011;11959;49.418;8.728;2023-01-16T12:25:35;4.43;;;2.17;;
23561;SDS011;11959;49.418;8.728;2023-01-16T12:28:41;3.05;;;1.40;;
23561;SDS011;11959;49.418;8.728;2023-01-16T12:31:26;1.92;;;1.00;;
23561;SDS011;11959;49.418;8.728;2023-01-16T12:34:16;1.55;;;0.90;;
23561;SDS011;11959;49.418;8.728;2023-01-16T12:48:24;1.67;;;0.73;;
23561;SDS011;11959;49.418;8.728;2023-01-16T12:51:09;2.47;;;0.93;;
23561;SDS011;11959;49.418;8.728;2023-01-16T12:58:57;1.73;;;0.90;;
23561;SDS011;11959;49.418;8.728;2023-01-16T13:01:39;4.82;;;2.58;;
23561;SDS011;11959;49.418;8.728;2023-01-16T13:06:42;2.25;;;1.58;;
23561;SDS011;11959;49.418;8.728;2023-01-16T13:12:19;2.25;;;0.90;;
23561;SDS011;11959;49.418;8.728;2023-01-16T13:15:28;2.17;;;1.17;;
23561;SDS011;11959;49.418;8.728;2023-01-16T13:18:02;2.13;;;0.82;;
23561;SDS011;11959;49.418;8.728;2023-01-16T13:20:35;2.53;;;0.80;;
23561;SDS011;11959;49.418;8.728;2023-01-16T13:23:04;0.98;;;0.75;;
23561;SDS011;11959;49.418;8.728;2023-01-16T13:25:43;0.68;;;0.40;;
23561;SDS011;11959;49.418;8.728;2023-01-16T13:28:21;0.82;;;0.47;;
23561;SDS011;11959;49.418;8.728;2023-01-16T13:31:16;1.67;;;0.47;;
23561;SDS011;11959;49.418;8.728;2023-01-16T13:33:53;0.90;;;0.50;;
23561;SDS011;11959;49.418;8.728;2023-01-16T13:36:41;1.98;;;0.55;;
23561;SDS011;11959;49.418;8.728;2023-01-16T13:39:36;1.33;;;0.55;;
23561;SDS011;11959;49.418;8.728;2023-01-16T13:42:23;1.35;;;0.50;;
23561;SDS011;11959;49.418;8.728;2023-01-16T13:44:54;0.68;;;0.35;;
23561;SDS011;11959;49.418;8.728;2023-01-16T13:47:44;1.08;;;0.60;;
23561;SDS011;11959;49.418;8.728;2023-01-16T13:52:49;0.68;;;0.40;;
23561;SDS011;11959;49.418;8.728;2023-01-16T14:00:57;1.55;;;1.08;;
23561;SDS011;11959;49.418;8.728;2023-01-16T14:03:26;0.50;;;0.50;;
23561;SDS011;11959;49.418;8.728;2023-01-16T14:05:54;1.23;;;0.50;;
23561;SDS011;11959;49.418;8.728;2023-01-16T14:08:48;3.88;;;0.50;;
23561;SDS011;11959;49.418;8.728;2023-01-16T14:17:26;0.55;;;0.40;;
23561;SDS011;11959;49.418;8.728;2023-01-16T14:23:23;2.78;;;0.52;;
23561;SDS011;11959;49.418;8.728;2023-01-16T14:29:04;0.70;;;0.45;;
23561;SDS011;11959;49.418;8.728;2023-01-16T14:37:12;2.15;;;0.63;;
23561;SDS011;11959;49.418;8.728;2023-01-16T14:39:48;1.00;;;0.47;;
23561;SDS011;11959;49.418;8.728;2023-01-16T14:42:32;1.58;;;0.68;;
23561;SDS011;11959;49.418;8.728;2023-01-16T14:48:13;3.10;;;0.52;;
23561;SDS011;11959;49.418;8.728;2023-01-16T14:51:17;1.02;;;0.35;;
23561;SDS011;11959;49.418;8.728;2023-01-16T14:54:20;2.17;;;0.68;;
23561;SDS011;11959;49.418;8.728;2023-01-16T14:57:16;8.60;;;4.10;;
23561;SDS011;11959;49.418;8.728;2023-01-16T15:00:08;10.25;;;4.32;;
23561;SDS011;11959;49.418;8.728;2023-01-16T15:03:14;2.75;;;1.52;;
23561;SDS011;11959;49.418;8.728;2023-01-16T15:05:52;3.45;;;1.77;;
23561;SDS011;11959;49.418;8.728;2023-01-16T15:08:32;1.20;;;0.80;;
23561;SDS011;11959;49.418;8.728;2023-01-16T15:11:01;1.40;;;0.70;;
23561;SDS011;11959;49.418;8.728;2023-01-16T15:14:03;4.05;;;1.40;;
23561;SDS011;11959;49.418;8.728;2023-01-16T15:16:50;3.08;;;0.90;;
23561;SDS011;11959;49.418;8.728;2023-01-16T15:20:05;1.83;;;0.85;;
23561;SDS011;11959;49.418;8.728;2023-01-16T15:22:58;1.05;;;0.50;;
23561;SDS011;11959;49.418;8.728;2023-01-16T15:28:28;0.98;;;0.45;;
23561;SDS011;11959;49.418;8.728;2023-01-16T15:30:59;0.63;;;0.45;;
23561;SDS011;11959;49.418;8.728;2023-01-16T15:33:29;1.55;;;0.30;;
23561;SDS011;11959;49.418;8.728;2023-01-16T15:36:36;0.30;;;0.30;;
23561;SDS011;11959;49.418;8.728;2023-01-16T15:41:52;0.70;;;0.40;;
23561;SDS011;11959;49.418;8.728;2023-01-16T15:44:37;1.60;;;0.38;;
23561;SDS011;11959;49.418;8.728;2023-01-16T15:53:11;1.13;;;0.40;;
23561;SDS011;11959;49.418;8.728;2023-01-16T15:56:00;0.85;;;0.70;;
23561;SDS011;11959;49.418;8.728;2023-01-16T15:58:27;2.72;;;1.98;;
23561;SDS011;11959;49.418;8.728;2023-01-16T16:00:57;2.20;;;1.77;;
23561;SDS011;11959;49.418;8.728;2023-01-16T16:03:29;2.97;;;2.00;;
23561;SDS011;11959;49.418;8.728;2023-01-16T16:06:09;0.20;;;0.20;;
23561;SDS011;11959;49.418;8.728;2023-01-16T16:08:38;0.60;;;0.32;;
23561;SDS011;11959;49.418;8.728;2023-01-16T16:11:07;0.95;;;0.20;;
23561;SDS011;11959;49.418;8.728;2023-01-16T16:13:52;1.15;;;0.30;;
23561;SDS011;11959;49.418;8.728;2023-01-16T16:16:24;3.53;;;0.50;;
23561;SDS011;11959;49.418;8.728;2023-01-16T16:19:28;0.35;;;0.20;;
23561;SDS011;11959;49.418;8.728;2023-01-16T16:21:56;0.88;;;0.40;;
23561;SDS011;11959;49.418;8.728;2023-01-16T16:24:43;0.45;;;0.30;;
23561;SDS011;11959;49.418;8.728;2023-01-16T16:27:13;3.10;;;0.40;;
23561;SDS011;11959;49.418;8.728;2023-01-16T16:29:41;0.77;;;0.30;;
23561;SDS011;11959;49.418;8.728;2023-01-16T16:32:13;0.60;;;0.30;;
23561;SDS011;11959;49.418;8.728;2023-01-16T16:34:41;0.38;;;0.20;;
23561;SDS011;11959;49.418;8.728;2023-01-16T16:37:18;1.15;;;0.28;;
23561;SDS011;11959;49.418;8.728;2023-01-16T16:39:46;0.93;;;0.30;;
23561;SDS011;11959;49.418;8.728;2023-01-16T16:49:59;0.90;;;0.20;;
23561;SDS011;11959;49.418;8.728;2023-01-16T16:52:44;0.70;;;0.30;;
23561;SDS011;11959;49.418;8.728;2023-01-16T16:55:27;0.30;;;0.20;;
23561;SDS011;11959;49.418;8.728;2023-01-16T16:57:53;0.43;;;0.32;;
23561;SDS011;11959;49.418;8.728;2023-01-16T17:00:21;0.40;;;0.30;;
23561;SDS011;11959;49.418;8.728;2023-01-16T17:02:48;1.27;;;0.40;;
23561;SDS011;11959;49.418;8.728;2023-01-16T17:05:15;1.02;;;0.80;;
23561;SDS011;11959;49.418;8.728;2023-01-16T17:07:44;0.63;;;0.40;;
23561;SDS011;11959;49.418;8.728;2023-01-16T17:10:14;0.57;;;0.30;;
23561;SDS011;11959;49.418;8.728;2023-01-16T17:12:41;0.82;;;0.40;;
23561;SDS011;11959;49.418;8.728;2023-01-16T17:15:08;0.93;;;0.40;;
23561;SDS011;11959;49.418;8.728;2023-01-16T17:17:39;1.33;;;0.47;;
23561;SDS011;11959;49.418;8.728;2023-01-16T17:20:14;0.90;;;0.32;;
23561;SDS011;11959;49.418;8.728;2023-01-16T17:22:41;1.85;;;0.45;;
23561;SDS011;11959;49.418;8.728;2023-01-16T17:25:11;1.20;;;0.40;;
23561;SDS011;11959;49.418;8.728;2023-01-16T17:27:51;1.42;;;0.50;;
23561;SDS011;11959;49.418;8.728;2023-01-16T17:30:18;1.23;;;0.52;;
23561;SDS011;11959;49.418;8.728;2023-01-16T17:32:58;0.43;;;0.40;;
23561;SDS011;11959;49.418;8.728;2023-01-16T17:35:32;1.05;;;0.70;;
23561;SDS011;11959;49.418;8.728;2023-01-16T17:37:58;0.95;;;0.50;;
23561;SDS011;11959;49.418;8.728;2023-01-16T17:40:24;1.30;;;0.65;;
23561;SDS011;11959;49.418;8.728;2023-01-16T17:42:49;1.23;;;0.60;;
23561;SDS011;11959;49.418;8.728;2023-01-16T17:45:41;0.30;;;0.30;;
23561;SDS011;11959;49.418;8.728;2023-01-16T17:48:18;0.93;;;0.50;;
23561;SDS011;11959;49.418;8.728;2023-01-16T17:50:46;0.43;;;0.30;;
23561;SDS011;11959;49.418;8.728;2023-01-16T17:53:12;1.92;;;0.75;;
23561;SDS011;11959;49.418;8.728;2023-01-16T17:55:42;2.08;;;0.60;;
23561;SDS011;11959;49.418;8.728;2023-01-16T17:58:19;1.55;;;0.57;;
23561;SDS011;11959;49.418;8.728;2023-01-16T18:00:52;1.40;;;0.70;;
23561;SDS011;11959;49.418;8.728;2023-01-16T18:03:30;1.23;;;0.73;;
23561;SDS011;11959;49.418;8.728;2023-01-16T18:06:04;0.52;;;0.40;;
23561;SDS011;11959;49.418;8.728;2023-01-16T18:08:32;1.73;;;0.65;;
23561;SDS011;11959;49.418;8.728;2023-01-16T18:10:58;2.15;;;0.60;;
23561;SDS011;11959;49.418;8.728;2023-01-16T18:13:46;1.98;;;1.00;;
23561;SDS011;11959;49.418;8.728;2023-01-16T18:16:30;0.93;;;0.68;;
23561;SDS011;11959;49.418;8.728;2023-01-16T18:19:14;1.25;;;0.70;;
23561;SDS011;11959;49.418;8.728;2023-01-16T18:21:40;2.50;;;0.80;;
23561;SDS011;11959;49.418;8.728;2023-01-16T18:24:24;1.90;;;0.90;;